Time;durP1;ratioP1;P1;durP2;ratioP2;P2;SDS_P1;SDS_P2;PMS_P1;PMS_P2;Temp;Humidity;BMP_temperature;BMP_pressure;BME280_temperature;BME280_humidity;BME280_pressure;Samples;Min_cycle;Max_cycle;Signal;HPM_P1;HPM_P2
2023/11/26 00:00:10;;;;;;;0.68;0.68;;;;;;;3.41;92.80;100425.84;4946822;28;20429;-72
2023/11/26 00:02:38;;;;;;;0.80;0.80;;;;;;;3.43;92.86;100424.44;4964804;28;20031;-72
2023/11/26 00:05:05;;;;;;;0.65;0.63;;;;;;;3.39;93.09;100428.03;4966177;28;20072;-73
2023/11/26 00:07:30;;;;;;;2.05;1.25;;;;;;;3.33;92.81;100424.75;4954811;28;20042;-73
2023/11/26 00:09:56;;;;;;;1.13;0.90;;;;;;;3.31;93.55;100426.16;4964913;28;20094;-73
2023/11/26 00:12:22;;;;;;;0.85;0.57;;;;;;;3.31;93.47;100426.16;4967516;28;20035;-73
2023/11/26 00:14:51;;;;;;;1.25;1.05;;;;;;;3.25;93.55;100424.75;4966025;28;20034;-72
2023/11/26 00:17:18;;;;;;;1.08;0.85;;;;;;;3.27;93.39;100428.66;4967667;28;20030;-73
2023/11/26 00:19:45;;;;;;;0.60;0.60;;;;;;;3.28;92.59;100426.78;4974655;28;20047;-71
2023/11/26 00:22:10;;;;;;;2.00;1.35;;;;;;;3.33;92.81;100431.97;4974678;28;20645;-72
2023/11/26 00:24:36;;;;;;;2.65;1.13;;;;;;;3.23;92.48;100437.56;4971785;28;20059;-72
2023/11/26 00:27:01;;;;;;;1.15;1.02;;;;;;;3.24;92.39;100431.94;4970170;28;20118;-73
2023/11/26 00:29:27;;;;;;;0.93;0.65;;;;;;;3.33;92.19;100439.94;4970780;28;20110;-73
2023/11/26 00:31:53;;;;;;;1.05;0.68;;;;;;;3.29;91.70;100434.44;4967843;28;20035;-72
2023/11/26 00:34:18;;;;;;;1.63;0.88;;;;;;;3.24;91.68;100439.13;4961253;28;20074;-72
2023/11/26 00:36:44;;;;;;;1.50;1.13;;;;;;;3.20;92.25;100431.00;4974178;28;20042;-73
2023/11/26 00:39:09;;;;;;;0.85;0.80;;;;;;;3.31;92.41;100448.22;4986961;28;20038;-72
2023/11/26 00:41:35;;;;;;;1.17;0.90;;;;;;;3.32;91.73;100447.13;4971847;28;20027;-72
2023/11/26 00:44:01;;;;;;;0.75;0.75;;;;;;;3.28;91.81;100440.06;4970668;28;20425;-72
2023/11/26 00:46:29;;;;;;;1.13;0.70;;;;;;;3.32;91.70;100449.00;4973723;28;20037;-73
2023/11/26 00:48:57;;;;;;;0.60;0.60;;;;;;;3.20;91.80;100452.28;4972657;28;20632;-73
2023/11/26 00:51:25;;;;;;;2.33;1.02;;;;;;;3.11;92.23;100454.13;4973005;28;20517;-73
2023/11/26 00:53:50;;;;;;;1.20;1.00;;;;;;;3.19;92.38;100452.59;4965001;28;20031;-72
2023/11/26 00:56:16;;;;;;;1.98;1.13;;;;;;;3.27;92.00;100457.16;4966290;28;20043;-72
2023/11/26 00:58:44;;;;;;;0.75;0.60;;;;;;;3.21;91.79;100467.16;4953617;28;20129;-72
2023/11/26 01:01:09;;;;;;;0.73;0.40;;;;;;;3.17;91.44;100474.19;4976549;28;20086;-72
2023/11/26 01:03:35;;;;;;;0.75;0.75;;;;;;;3.02;92.07;100471.16;4969183;28;20030;-73
2023/11/26 01:06:00;;;;;;;1.95;0.60;;;;;;;3.10;92.10;100476.50;4969664;28;20038;-72
2023/11/26 01:08:26;;;;;;;1.02;1.00;;;;;;;3.10;92.07;100475.72;4967592;28;20305;-70
2023/11/26 01:10:51;;;;;;;0.50;0.50;;;;;;;3.13;91.80;100478.56;4969979;28;20668;-73
2023/11/26 01:13:16;;;;;;;5.88;0.70;;;;;;;3.00;91.24;100484.75;4956625;28;20104;-72
2023/11/26 01:15:44;;;;;;;1.92;0.63;;;;;;;3.03;91.54;100475.38;4950554;28;20038;-72
2023/11/26 01:18:09;;;;;;;0.52;0.52;;;;;;;3.00;91.86;100487.41;4946214;28;20046;-72
2023/11/26 01:20:34;;;;;;;0.57;0.57;;;;;;;3.06;91.55;100480.88;4946300;28;20037;-72
2023/11/26 01:23:00;;;;;;;1.05;0.77;;;;;;;3.07;91.55;100494.94;4952885;28;20482;-72
2023/11/26 01:25:25;;;;;;;1.15;0.90;;;;;;;3.16;91.18;100487.78;4938304;28;20031;-72
2023/11/26 01:27:51;;;;;;;0.93;0.82;;;;;;;3.06;90.46;100494.16;4963085;28;20529;-72
2023/11/26 01:30:16;;;;;;;0.90;0.55;;;;;;;3.13;90.25;100493.72;4948436;28;20347;-72
2023/11/26 01:32:43;;;;;;;1.85;1.15;;;;;;;3.08;90.73;100501.84;4947410;28;20670;-72
2023/11/26 01:35:08;;;;;;;0.88;0.88;;;;;;;3.02;90.48;100503.84;4965022;28;20086;-72
2023/11/26 01:37:37;;;;;;;1.70;0.90;;;;;;;3.00;90.37;100497.28;4951142;28;20557;-72
2023/11/26 01:40:05;;;;;;;0.45;0.45;;;;;;;3.03;90.59;100486.81;4951677;28;20121;-71
2023/11/26 01:42:30;;;;;;;0.88;0.77;;;;;;;3.07;90.64;100495.75;4943298;28;20035;-70
2023/11/26 01:44:56;;;;;;;0.70;0.70;;;;;;;2.96;90.56;100497.09;4955455;28;20543;-72
2023/11/26 01:47:24;;;;;;;2.38;0.65;;;;;;;2.94;90.71;100493.19;4955420;28;20034;-73
2023/11/26 01:49:49;;;;;;;0.45;0.45;;;;;;;2.81;90.42;100502.81;4935987;28;20157;-72
2023/11/26 01:52:15;;;;;;;1.08;0.90;;;;;;;2.91;90.74;100497.25;4951471;28;20541;-72
2023/11/26 01:54:42;;;;;;;0.60;0.60;;;;;;;2.83;90.93;100498.00;4952807;28;20062;-71
2023/11/26 01:57:10;;;;;;;0.82;0.63;;;;;;;2.61;91.13;100493.50;4951425;28;20045;-72
2023/11/26 01:59:35;;;;;;;1.65;0.70;;;;;;;2.74;91.91;100500.63;4957958;28;20026;-72
2023/11/26 02:02:01;;;;;;;0.75;0.75;;;;;;;2.82;91.33;100506.28;4952995;28;20493;-73
2023/11/26 02:04:30;;;;;;;0.68;0.60;;;;;;;2.89;91.16;100499.41;4949987;28;20564;-73
2023/11/26 02:06:56;;;;;;;1.55;1.10;;;;;;;3.00;90.68;100500.72;4941483;28;20485;-73
2023/11/26 02:09:22;;;;;;;0.73;0.70;;;;;;;3.06;89.76;100504.78;4957493;28;20041;-73
2023/11/26 02:11:47;;;;;;;0.63;0.63;;;;;;;3.01;89.49;100512.94;4967091;28;20049;-72
2023/11/26 02:14:13;;;;;;;1.38;1.00;;;;;;;2.93;89.46;100505.69;4986457;28;20405;-73
2023/11/26 02:16:39;;;;;;;0.65;0.65;;;;;;;2.92;89.34;100519.31;4969034;28;20553;-73
2023/11/26 02:19:38;;;;;;;0.55;0.50;;;;;;;2.82;89.77;100509.72;4967647;28;20035;-72
2023/11/26 02:22:08;;;;;;;7.65;0.90;;;;;;;2.87;89.48;100516.75;4987708;28;20038;-72
2023/11/26 02:25:00;;;;;;;0.60;0.60;;;;;;;2.80;89.37;100527.06;4962159;28;20034;-73
2023/11/26 02:27:25;;;;;;;0.50;0.50;;;;;;;2.82;89.58;100517.69;4967100;28;20047;-70
2023/11/26 02:29:51;;;;;;;0.52;0.50;;;;;;;2.76;89.02;100534.88;4970042;28;20030;-72
2023/11/26 02:32:16;;;;;;;0.45;0.45;;;;;;;2.74;89.41;100523.75;4970744;28;20453;-73
2023/11/26 02:34:42;;;;;;;1.02;0.60;;;;;;;2.71;89.46;100524.34;4967590;28;20067;-72
2023/11/26 02:37:07;;;;;;;0.73;0.73;;;;;;;2.66;90.04;100529.81;4965686;28;20406;-73
2023/11/26 02:39:33;;;;;;;0.68;0.68;;;;;;;2.67;89.75;100534.81;4973389;28;20034;-73
2023/11/26 02:41:58;;;;;;;0.82;0.82;;;;;;;2.72;90.14;100520.63;4973186;28;20038;-73
2023/11/26 02:44:24;;;;;;;0.93;0.60;;;;;;;2.67;89.35;100518.09;4960306;28;20026;-72
2023/11/26 02:46:51;;;;;;;0.55;0.55;;;;;;;2.63;89.52;100514.50;4968700;28;20046;-73
2023/11/26 02:49:17;;;;;;;0.68;0.68;;;;;;;2.75;89.42;100504.03;4973489;28;20041;-72
2023/11/26 02:51:42;;;;;;;0.60;0.60;;;;;;;2.68;89.48;100515.13;4975847;28;20035;-73
2023/11/26 02:54:08;;;;;;;0.40;0.40;;;;;;;2.60;89.50;100513.22;4975802;28;20042;-72
2023/11/26 02:56:34;;;;;;;0.77;0.70;;;;;;;2.60;89.43;100518.53;4970059;28;20035;-73
2023/11/26 02:58:59;;;;;;;1.65;1.10;;;;;;;2.56;89.33;100517.56;4959799;28;20453;-73
2023/11/26 03:01:29;;;;;;;0.40;0.40;;;;;;;2.58;88.94;100511.94;4971601;28;20034;-73
2023/11/26 03:03:56;;;;;;;0.70;0.50;;;;;;;2.56;89.39;100511.47;4959392;28;20034;-73
2023/11/26 03:06:26;;;;;;;0.70;0.70;;;;;;;2.58;89.33;100517.25;4973081;28;20027;-73
2023/11/26 03:09:00;;;;;;;0.60;0.60;;;;;;;2.53;89.27;100517.41;4972280;28;20042;-73
2023/11/26 03:14:14;;;;;;;0.32;0.30;;;;;;;2.25;90.40;100523.94;4953788;28;20054;-74
2023/11/26 03:16:44;;;;;;;0.30;0.30;;;;;;;2.35;90.25;100526.34;4955738;28;20541;-73
2023/11/26 03:19:14;;;;;;;0.30;0.30;;;;;;;2.43;90.38;100533.59;4966856;28;20035;-74
2023/11/26 03:21:44;;;;;;;0.52;0.52;;;;;;;2.42;90.21;100529.38;4959099;28;20031;-74
2023/11/26 03:24:15;;;;;;;0.98;0.80;;;;;;;2.42;90.14;100529.38;4956029;28;20440;-74
2023/11/26 03:26:40;;;;;;;4.00;1.20;;;;;;;2.40;89.45;100534.97;4967661;28;20030;-74
2023/11/26 03:29:07;;;;;;;0.70;0.60;;;;;;;2.48;89.83;100525.47;4950027;28;20077;-74
2023/11/26 03:31:35;;;;;;;5.75;1.40;;;;;;;2.53;89.57;100525.38;4952447;28;20486;-74
2023/11/26 03:34:08;;;;;;;1.35;0.95;;;;;;;2.40;89.30;100534.19;4971194;28;20053;-73
2023/11/26 03:36:35;;;;;;;1.48;1.33;;;;;;;2.33;89.54;100541.78;4973228;28;20089;-74
2023/11/26 03:39:01;;;;;;;0.63;0.50;;;;;;;2.27;89.74;100532.38;4955295;28;20038;-70
2023/11/26 03:41:26;;;;;;;0.25;0.25;;;;;;;2.34;90.35;100527.44;4954049;28;20027;-73
2023/11/26 03:43:51;;;;;;;2.05;1.33;;;;;;;2.35;90.05;100529.00;4950499;28;20038;-73
2023/11/26 03:46:18;;;;;;;0.52;0.52;;;;;;;2.37;89.68;100532.94;4954541;28;20038;-74
2023/11/26 03:48:45;;;;;;;0.73;0.73;;;;;;;2.42;89.23;100532.03;4977445;28;20030;-73
2023/11/26 03:51:20;;;;;;;0.28;0.28;;;;;;;2.38;89.42;100533.72;4942345;28;20066;-73
2023/11/26 03:53:47;;;;;;;0.60;0.52;;;;;;;2.38;89.49;100539.81;4972854;28;20042;-73
2023/11/26 03:56:13;;;;;;;1.15;1.05;;;;;;;2.42;89.25;100530.13;4970756;28;20038;-70
2023/11/26 03:58:38;;;;;;;0.25;0.25;;;;;;;2.38;89.07;100536.38;4954412;28;20038;-72
2023/11/26 04:01:09;;;;;;;0.75;0.75;;;;;;;2.39;88.77;100540.59;4948963;28;20031;-72
2023/11/26 04:03:37;;;;;;;0.70;0.50;;;;;;;2.31;88.97;100544.75;4965625;28;20035;-73
2023/11/26 04:06:05;;;;;;;0.60;0.60;;;;;;;2.39;88.87;100545.91;4953156;28;20054;-73
2023/11/26 04:08:31;;;;;;;0.40;0.40;;;;;;;2.39;89.19;100548.56;4959874;28;20034;-73
2023/11/26 04:10:57;;;;;;;0.77;0.77;;;;;;;2.45;88.65;100539.38;4971599;28;20039;-72
2023/11/26 04:13:27;;;;;;;0.63;0.60;;;;;;;2.47;88.56;100553.16;4973934;28;20037;-73
2023/11/26 04:15:58;;;;;;;1.05;1.02;;;;;;;2.42;88.45;100551.38;4989769;28;20027;-73
2023/11/26 04:18:24;;;;;;;0.77;0.77;;;;;;;2.37;88.50;100542.75;4972408;28;20030;-73
2023/11/26 04:20:51;;;;;;;0.68;0.60;;;;;;;2.29;88.94;100554.09;4970866;28;20033;-73
2023/11/26 04:23:18;;;;;;;1.38;0.60;;;;;;;2.26;88.91;100555.53;4956609;28;20031;-73
2023/11/26 04:25:44;;;;;;;0.55;0.55;;;;;;;2.28;88.67;100558.66;4967985;28;20037;-73
2023/11/26 04:28:13;;;;;;;1.00;0.65;;;;;;;2.31;88.91;100563.34;4971023;28;20502;-72
2023/11/26 04:30:39;;;;;;;1.27;0.57;;;;;;;2.34;88.67;100560.09;4968530;28;20034;-73
2023/11/26 04:33:04;;;;;;;0.82;0.55;;;;;;;2.33;88.30;100571.00;4969968;28;20053;-73
2023/11/26 04:35:30;;;;;;;0.45;0.45;;;;;;;2.30;88.71;100571.63;4967335;28;20058;-73
2023/11/26 04:37:56;;;;;;;0.75;0.73;;;;;;;2.30;88.67;100571.63;4985261;28;20038;-73
2023/11/26 04:40:22;;;;;;;0.30;0.30;;;;;;;2.33;88.73;100569.16;4964634;28;20043;-73
2023/11/26 04:42:47;;;;;;;8.10;0.73;;;;;;;2.33;88.44;100560.38;4973482;28;20050;-73
2023/11/26 04:45:13;;;;;;;0.50;0.50;;;;;;;2.30;88.46;100571.63;4971002;28;20038;-73
2023/11/26 04:47:39;;;;;;;0.38;0.38;;;;;;;2.34;88.50;100569.94;4969926;28;20095;-73
2023/11/26 04:50:06;;;;;;;0.65;0.50;;;;;;;2.32;88.37;100567.56;4971349;28;20035;-73
2023/11/26 04:52:32;;;;;;;0.88;0.88;;;;;;;2.41;88.58;100568.44;4968754;28;20027;-73
2023/11/26 04:54:57;;;;;;;0.77;0.70;;;;;;;2.39;88.14;100583.09;4971490;28;20042;-73
2023/11/26 04:57:23;;;;;;;1.13;0.73;;;;;;;2.30;88.59;100587.56;4953685;28;20065;-73
2023/11/26 04:59:49;;;;;;;1.80;1.10;;;;;;;2.34;89.17;100572.59;4968418;28;20086;-73
2023/11/26 05:02:14;;;;;;;0.50;0.50;;;;;;;2.38;89.03;100569.03;4976715;28;20482;-73
2023/11/26 05:04:40;;;;;;;0.70;0.70;;;;;;;2.44;88.66;100569.72;4969972;28;20453;-73
2023/11/26 05:07:06;;;;;;;0.47;0.47;;;;;;;2.38;88.22;100574.34;4970516;28;20043;-73
2023/11/26 05:09:32;;;;;;;0.57;0.57;;;;;;;2.39;88.67;100586.53;4938583;28;20031;-73
2023/11/26 05:12:01;;;;;;;1.45;0.82;;;;;;;2.42;88.26;100579.84;4952785;28;20030;-73
2023/11/26 05:14:27;;;;;;;0.43;0.43;;;;;;;2.39;88.26;100583.88;4972907;28;20490;-73
2023/11/26 05:16:56;;;;;;;0.80;0.80;;;;;;;2.37;88.50;100586.06;4971918;28;20501;-73
2023/11/26 05:19:21;;;;;;;0.65;0.65;;;;;;;2.41;89.39;100579.06;4933884;28;20043;-73
2023/11/26 05:21:46;;;;;;;0.52;0.52;;;;;;;2.39;89.12;100585.75;4969945;28;20631;-73
2023/11/26 05:24:13;;;;;;;1.35;0.50;;;;;;;2.38;89.57;100581.53;4954704;28;20126;-73
2023/11/26 05:26:41;;;;;;;0.98;0.80;;;;;;;2.43;89.30;100586.72;4952585;28;20046;-73
2023/11/26 05:29:08;;;;;;;0.90;0.90;;;;;;;2.45;89.32;100584.56;4952299;28;20409;-73
2023/11/26 05:31:34;;;;;;;0.60;0.43;;;;;;;2.47;88.88;100585.03;4968339;28;20414;-73
2023/11/26 05:33:59;;;;;;;0.85;0.80;;;;;;;2.39;88.91;100591.06;4969853;28;20065;-73
2023/11/26 05:36:25;;;;;;;0.30;0.30;;;;;;;2.49;89.00;100590.84;4969642;28;20033;-73
2023/11/26 05:38:51;;;;;;;0.95;0.70;;;;;;;2.56;88.80;100593.84;4973843;28;20063;-73
2023/11/26 05:41:19;;;;;;;0.68;0.68;;;;;;;2.56;87.97;100601.81;4964280;28;20110;-73
2023/11/26 05:43:45;;;;;;;0.80;0.80;;;;;;;2.49;88.26;100601.47;4964636;28;20402;-72
2023/11/26 05:46:11;;;;;;;0.47;0.47;;;;;;;2.47;88.35;100599.09;4952848;28;20446;-73
2023/11/26 05:48:38;;;;;;;1.23;0.90;;;;;;;2.53;88.17;100591.78;4970044;28;20038;-73
2023/11/26 05:51:05;;;;;;;0.30;0.30;;;;;;;2.47;88.18;100593.00;4970827;28;20037;-73
2023/11/26 05:53:30;;;;;;;1.15;0.75;;;;;;;2.49;88.48;100586.31;4950292;28;20142;-72
2023/11/26 05:55:56;;;;;;;0.40;0.40;;;;;;;2.43;88.58;100581.41;4970612;28;20110;-73
2023/11/26 05:58:21;;;;;;;0.70;0.70;;;;;;;2.44;88.72;100575.03;4972266;28;20050;-73
2023/11/26 06:00:47;;;;;;;0.80;0.80;;;;;;;2.55;88.69;100573.69;4970976;28;20062;-73
2023/11/26 06:03:16;;;;;;;0.80;0.70;;;;;;;2.62;87.81;100574.03;4968012;28;20041;-73
2023/11/26 06:05:43;;;;;;;0.40;0.40;;;;;;;2.63;87.80;100580.94;4975533;28;20034;-73
2023/11/26 06:08:09;;;;;;;0.30;0.30;;;;;;;2.56;87.72;100585.88;4972361;28;20151;-73
2023/11/26 06:10:35;;;;;;;0.45;0.45;;;;;;;2.70;87.52;100578.63;4953773;28;20022;-73
2023/11/26 06:13:01;;;;;;;0.95;0.85;;;;;;;2.63;87.60;100581.69;4970767;28;20055;-73
2023/11/26 06:15:27;;;;;;;0.50;0.50;;;;;;;2.62;87.80;100589.97;4951261;28;20502;-73
2023/11/26 06:17:52;;;;;;;1.13;0.50;;;;;;;2.71;87.50;100585.47;4957838;28;20057;-73
2023/11/26 06:20:18;;;;;;;0.77;0.77;;;;;;;2.72;87.33;100577.22;4951779;28;20100;-73
2023/11/26 06:22:43;;;;;;;0.57;0.57;;;;;;;2.68;87.57;100568.28;4973866;28;20113;-72
2023/11/26 06:25:13;;;;;;;0.93;0.75;;;;;;;2.73;87.64;100575.34;4955450;28;20050;-72
2023/11/26 06:27:38;;;;;;;1.30;1.02;;;;;;;2.71;88.10;100570.31;4970383;28;20062;-73
2023/11/26 06:30:05;;;;;;;1.73;0.95;;;;;;;2.71;88.39;100578.31;4956113;28;20057;-73
2023/11/26 06:32:31;;;;;;;2.28;1.17;;;;;;;2.79;89.02;100579.44;4937405;28;20486;-73
2023/11/26 06:34:57;;;;;;;0.77;0.50;;;;;;;2.82;89.25;100578.84;4975044;28;20062;-73
2023/11/26 06:37:26;;;;;;;0.60;0.60;;;;;;;2.96;88.22;100573.44;4970145;28;20042;-73
2023/11/26 06:39:53;;;;;;;0.38;0.38;;;;;;;2.98;87.93;100579.25;4955074;28;20062;-73
2023/11/26 06:42:18;;;;;;;2.30;0.73;;;;;;;2.95;88.52;100579.84;4952848;28;20034;-73
2023/11/26 06:44:45;;;;;;;0.52;0.52;;;;;;;2.88;88.86;100576.84;4954878;28;20125;-73
2023/11/26 06:47:10;;;;;;;0.70;0.70;;;;;;;2.90;89.39;100591.41;4949417;28;20074;-73
2023/11/26 06:49:35;;;;;;;1.30;1.13;;;;;;;2.78;89.76;100593.03;4953527;28;20062;-73
2023/11/26 06:52:01;;;;;;;0.82;0.82;;;;;;;2.82;89.96;100602.78;4963210;28;20053;-73
2023/11/26 06:54:26;;;;;;;5.50;0.90;;;;;;;2.77;90.79;100602.88;4953440;28;20027;-73
2023/11/26 06:56:52;;;;;;;0.88;0.88;;;;;;;2.86;90.38;100594.97;4973176;28;20403;-73
2023/11/26 06:59:17;;;;;;;1.13;0.75;;;;;;;2.98;89.71;100576.59;4963197;28;20651;-73
2023/11/26 07:01:43;;;;;;;2.05;0.75;;;;;;;3.03;88.83;100579.88;4954047;28;20126;-72
2023/11/26 07:04:10;;;;;;;0.88;0.88;;;;;;;3.00;89.07;100577.06;4953645;28;20134;-73
2023/11/26 07:06:36;;;;;;;1.30;1.23;;;;;;;2.99;89.49;100568.28;4958610;28;20038;-72
2023/11/26 07:09:06;;;;;;;0.70;0.70;;;;;;;3.07;89.26;100567.56;4968852;28;20464;-71
2023/11/26 07:11:31;;;;;;;0.75;0.75;;;;;;;3.11;89.22;100563.19;4973789;28;20039;-73
2023/11/26 07:13:58;;;;;;;0.60;0.60;;;;;;;3.18;88.81;100562.72;4961249;28;20031;-73
2023/11/26 07:16:23;;;;;;;1.10;1.05;;;;;;;3.13;89.46;100558.34;4972161;28;20045;-73
2023/11/26 07:18:52;;;;;;;1.73;0.85;;;;;;;3.15;89.18;100564.16;4958502;28;20121;-73
2023/11/26 07:21:17;;;;;;;1.00;0.63;;;;;;;3.23;89.21;100555.38;4953493;28;20059;-73
2023/11/26 07:23:43;;;;;;;1.40;1.20;;;;;;;3.27;88.34;100553.69;4960701;28;20065;-73
2023/11/26 07:26:13;;;;;;;1.10;1.08;;;;;;;3.24;88.61;100556.97;4974783;28;20088;-73
2023/11/26 07:28:40;;;;;;;1.25;1.15;;;;;;;3.25;88.79;100565.75;4965854;28;20031;-72
2023/11/26 07:31:17;;;;;;;0.90;0.90;;;;;;;3.31;88.32;100559.97;4973804;28;20026;-73
2023/11/26 07:33:43;;;;;;;0.68;0.68;;;;;;;3.27;88.56;100563.56;4956039;28;20629;-73
2023/11/26 07:36:22;;;;;;;1.17;1.08;;;;;;;3.25;88.83;100558.53;4954727;28;20030;-73
2023/11/26 07:38:52;;;;;;;1.35;1.20;;;;;;;3.21;89.16;100576.22;4972517;28;20043;-73
2023/11/26 07:41:21;;;;;;;2.00;1.00;;;;;;;3.29;89.22;100572.78;4968501;28;20128;-73
2023/11/26 07:43:49;;;;;;;0.75;0.75;;;;;;;3.34;88.86;100580.66;4951879;28;20022;-73
2023/11/26 07:46:15;;;;;;;0.73;0.73;;;;;;;3.31;89.45;100581.25;4952141;28;20533;-73
2023/11/26 07:48:42;;;;;;;0.52;0.52;;;;;;;3.35;89.58;100570.75;4972419;28;20034;-73
2023/11/26 07:51:10;;;;;;;0.93;0.82;;;;;;;3.31;90.00;100570.59;4958393;28;20030;-73
2023/11/26 07:53:37;;;;;;;1.30;1.20;;;;;;;3.32;89.94;100556.22;4952840;28;20035;-73
2023/11/26 07:56:04;;;;;;;0.82;0.82;;;;;;;3.33;90.21;100562.34;4957070;28;20045;-73
2023/11/26 07:58:33;;;;;;;0.75;0.75;;;;;;;3.31;90.82;100565.28;4949591;28;20031;-73
2023/11/26 08:01:02;;;;;;;0.77;0.77;;;;;;;3.30;90.72;100568.25;4973781;28;20506;-72
2023/11/26 08:03:31;;;;;;;0.68;0.60;;;;;;;3.33;91.00;100571.06;4971416;28;20042;-73
2023/11/26 08:05:57;;;;;;;5.72;1.33;;;;;;;3.45;90.88;100570.50;4963809;28;20181;-73
2023/11/26 08:08:23;;;;;;;0.75;0.75;;;;;;;3.46;90.81;100562.22;4970743;28;20553;-73
2023/11/26 08:10:52;;;;;;;1.48;1.23;;;;;;;3.60;89.31;100562.84;4956651;28;20034;-73
2023/11/26 08:13:27;;;;;;;1.58;0.40;;;;;;;3.58;89.66;100570.38;4951969;28;20378;-73
2023/11/26 08:15:56;;;;;;;0.65;0.65;;;;;;;3.51;89.86;100575.38;4956861;28;20046;-73
2023/11/26 08:18:22;;;;;;;1.90;1.00;;;;;;;3.53;90.70;100562.53;4951884;28;20117;-72
2023/11/26 08:20:49;;;;;;;1.20;1.13;;;;;;;3.51;90.93;100554.06;4966400;28;20031;-72
2023/11/26 08:23:14;;;;;;;0.80;0.65;;;;;;;3.55;90.45;100554.22;4937507;28;20568;-73
2023/11/26 08:25:40;;;;;;;2.40;0.88;;;;;;;3.46;91.21;100551.56;4946231;28;20042;-73
2023/11/26 08:28:07;;;;;;;0.93;0.93;;;;;;;3.61;90.84;100553.78;4958083;28;20026;-73
2023/11/26 08:30:42;;;;;;;0.80;0.80;;;;;;;3.63;90.50;100554.25;4956603;28;20203;-73
2023/11/26 08:33:12;;;;;;;1.38;1.27;;;;;;;3.72;90.11;100554.25;4967969;28;20030;-73
2023/11/26 08:35:40;;;;;;;1.20;0.88;;;;;;;3.80;89.19;100560.69;4951926;28;20141;-72
2023/11/26 08:38:10;;;;;;;3.15;1.17;;;;;;;3.83;88.79;100560.09;4968622;28;20023;-73
2023/11/26 08:40:38;;;;;;;1.50;1.20;;;;;;;3.74;89.28;100552.06;4969138;28;20039;-73
2023/11/26 08:43:13;;;;;;;3.47;1.00;;;;;;;3.94;88.34;100551.47;4938511;28;20045;-73
2023/11/26 08:45:42;;;;;;;1.88;1.25;;;;;;;3.82;88.53;100558.50;4948422;28;20030;-73
2023/11/26 08:48:10;;;;;;;2.00;0.95;;;;;;;3.78;88.53;100552.22;4967851;28;20538;-73
2023/11/26 08:50:35;;;;;;;0.65;0.65;;;;;;;3.72;89.03;100561.47;4934189;28;20023;-74
2023/11/26 08:53:05;;;;;;;1.55;1.25;;;;;;;3.77;90.21;100570.09;4972861;28;20053;-72
2023/11/26 08:55:34;;;;;;;0.63;0.63;;;;;;;3.86;88.97;100562.91;4941700;28;20037;-73
2023/11/26 08:58:00;;;;;;;0.50;0.50;;;;;;;3.82;89.61;100558.50;4973519;28;20038;-73
2023/11/26 09:00:26;;;;;;;1.20;0.90;;;;;;;3.79;89.13;100562.59;4950246;28;20039;-73
2023/11/26 09:02:52;;;;;;;1.13;1.02;;;;;;;3.89;90.04;100553.50;4973353;28;20421;-72
2023/11/26 09:05:17;;;;;;;1.98;1.23;;;;;;;3.99;88.73;100558.53;4947488;28;20038;-72
2023/11/26 09:07:45;;;;;;;1.55;1.45;;;;;;;4.02;87.78;100557.91;4940630;28;20648;-72
2023/11/26 09:10:14;;;;;;;2.28;1.02;;;;;;;4.05;87.29;100558.06;4970546;28;20129;-73
2023/11/26 09:12:40;;;;;;;1.55;1.25;;;;;;;3.92;87.30;100553.66;4973704;28;20645;-72
2023/11/26 09:15:07;;;;;;;1.67;1.40;;;;;;;3.84;88.98;100556.31;4967931;28;20436;-72
2023/11/26 09:17:37;;;;;;;1.38;1.27;;;;;;;3.80;89.75;100550.03;4967368;28;20035;-72
2023/11/26 09:20:03;;;;;;;1.58;1.10;;;;;;;3.86;90.02;100554.91;4971012;28;20057;-71
2023/11/26 09:22:30;;;;;;;1.85;1.58;;;;;;;3.90;90.34;100560.38;4968843;28;20034;-72
2023/11/26 09:24:56;;;;;;;2.85;1.25;;;;;;;3.90;90.58;100571.84;4969229;28;20498;-73
2023/11/26 09:27:21;;;;;;;1.00;0.95;;;;;;;3.89;90.99;100567.59;4969734;28;20037;-72
2023/11/26 09:29:46;;;;;;;1.30;1.20;;;;;;;3.93;90.35;100567.78;4967117;28;20054;-72
2023/11/26 09:32:12;;;;;;;2.15;1.65;;;;;;;3.98;90.48;100573.72;4969883;28;20055;-72
2023/11/26 09:34:37;;;;;;;1.50;1.40;;;;;;;4.06;89.99;100580.16;4969180;28;20119;-72
2023/11/26 09:37:05;;;;;;;1.20;1.10;;;;;;;4.08;89.74;100575.31;4969436;28;20034;-72
2023/11/26 09:39:34;;;;;;;1.35;1.10;;;;;;;4.12;90.17;100571.69;4969799;28;20033;-72
2023/11/26 09:42:01;;;;;;;4.45;1.27;;;;;;;4.24;88.89;100565.75;4969385;28;20482;-72
2023/11/26 09:44:27;;;;;;;2.70;1.40;;;;;;;4.26;88.48;100566.97;4968628;28;20459;-72
2023/11/26 09:46:52;;;;;;;2.13;1.77;;;;;;;4.29;87.60;100566.38;4970886;28;20117;-72
2023/11/26 09:49:21;;;;;;;4.20;2.40;;;;;;;4.26;87.43;100569.66;4970684;28;20054;-72
2023/11/26 09:51:54;;;;;;;4.30;2.03;;;;;;;4.23;88.30;100564.16;4972202;28;20163;-72
2023/11/26 09:54:20;;;;;;;1.20;1.10;;;;;;;4.10;88.75;100581.88;4970996;28;20047;-71
2023/11/26 09:56:48;;;;;;;1.20;1.08;;;;;;;4.07;89.95;100577.16;4972118;28;20102;-72
2023/11/26 09:59:28;;;;;;;1.63;1.52;;;;;;;4.14;90.77;100579.38;4967677;28;20553;-72
2023/11/26 10:01:54;;;;;;;2.78;1.60;;;;;;;4.37;89.08;100570.13;4968571;28;20110;-72
2023/11/26 10:04:21;;;;;;;1.52;1.13;;;;;;;4.19;88.99;100566.69;4963003;28;20594;-71
2023/11/26 10:06:51;;;;;;;2.72;2.00;;;;;;;4.18;89.65;100559.75;4967859;28;20027;-72
2023/11/26 10:09:17;;;;;;;1.67;1.52;;;;;;;4.19;89.98;100563.22;4973594;28;20065;-72
2023/11/26 10:11:43;;;;;;;4.25;2.40;;;;;;;4.22;90.10;100576.69;4958479;28;20509;-72
2023/11/26 10:14:18;;;;;;;2.03;1.63;;;;;;;4.37;89.50;100573.56;4950484;28;20104;-71
2023/11/26 10:16:43;;;;;;;2.47;1.70;;;;;;;4.35;89.25;100580.31;4966529;28;20133;-72
2023/11/26 10:19:25;;;;;;;1.80;1.23;;;;;;;4.28;90.02;100572.00;4938138;28;20469;-71
2023/11/26 10:21:54;;;;;;;;;;;;;;;4.38;90.18;100577.00;4965336;28;20028;-71
2023/11/26 10:24:22;;;;;;;5.95;1.40;;;;;;;4.37;90.02;100570.91;4972802;28;19964;-71
2023/11/26 10:26:52;;;;;;;3.90;1.70;;;;;;;4.43;90.78;100568.88;4942852;28;20453;-72
2023/11/26 10:29:20;;;;;;;2.53;2.30;;;;;;;4.48;90.52;100571.34;4937261;28;20048;-71
2023/11/26 10:31:58;;;;;;;3.97;2.10;;;;;;;4.56;90.80;100567.91;4952337;28;20592;-71
2023/11/26 10:34:24;;;;;;;1.83;1.60;;;;;;;4.70;88.82;100554.38;4970102;28;20038;-71
2023/11/26 10:36:49;;;;;;;1.20;1.10;;;;;;;4.62;87.78;100557.84;4953845;28;20027;-71
2023/11/26 10:39:15;;;;;;;1.85;1.42;;;;;;;4.50;88.43;100553.16;4950905;28;20034;-71
2023/11/26 10:41:44;;;;;;;1.73;1.15;;;;;;;4.47;89.58;100556.47;4967943;28;20034;-71
2023/11/26 10:44:10;;;;;;;1.63;1.35;;;;;;;4.52;90.19;100557.09;4953228;28;20035;-71
2023/11/26 10:46:36;;;;;;;1.73;1.60;;;;;;;4.53;89.81;100547.19;4967976;28;20055;-71
2023/11/26 10:49:11;;;;;;;1.48;1.35;;;;;;;4.61;89.66;100558.97;4953499;28;20093;-72
2023/11/26 10:51:39;;;;;;;6.40;1.40;;;;;;;4.78;88.54;100549.00;4966478;28;20122;-71
2023/11/26 10:54:16;;;;;;;1.70;1.60;;;;;;;4.72;88.24;100555.63;4937940;28;20030;-71
2023/11/26 10:56:50;;;;;;;1.45;1.23;;;;;;;4.86;87.66;100545.53;4971025;28;20057;-70
2023/11/26 10:59:19;;;;;;;3.13;2.05;;;;;;;4.82;87.88;100549.19;4965903;28;20521;-72
2023/11/26 11:01:45;;;;;;;1.85;1.67;;;;;;;4.71;88.55;100542.59;4956691;28;20371;-72
2023/11/26 11:04:15;;;;;;;2.72;2.13;;;;;;;4.65;88.64;100547.31;4955169;28;20038;-72
2023/11/26 11:06:46;;;;;;;2.33;2.13;;;;;;;4.70;89.60;100551.72;4977781;28;20045;-72
2023/11/26 11:09:22;;;;;;;3.45;2.70;;;;;;;4.72;89.17;100558.31;4982163;28;20057;-71
2023/11/26 11:12:11;;;;;;;1.60;1.50;;;;;;;4.82;87.00;100555.28;4954587;28;20027;-72
2023/11/26 11:14:36;;;;;;;2.50;1.70;;;;;;;4.71;87.89;100562.06;4970602;28;20724;-72
2023/11/26 11:17:02;;;;;;;2.33;1.67;;;;;;;4.71;88.99;100561.25;4972046;28;20125;-72
2023/11/26 11:19:50;;;;;;;2.55;1.13;;;;;;;4.65;89.32;100563.31;4958893;28;20033;-72
2023/11/26 11:22:16;;;;;;;2.63;1.40;;;;;;;4.68;89.52;100561.91;4969530;28;20507;-72
2023/11/26 11:24:42;;;;;;;2.05;1.52;;;;;;;4.70;90.05;100568.50;4959444;28;20031;-72
2023/11/26 11:27:07;;;;;;;1.42;1.25;;;;;;;4.94;88.11;100551.94;4975155;28;20031;-72
2023/11/26 11:29:34;;;;;;;1.55;1.45;;;;;;;4.97;86.53;100543.31;4978806;28;20686;-72
2023/11/26 11:32:02;;;;;;;2.28;1.48;;;;;;;4.93;87.25;100535.16;4952782;28;20068;-72
2023/11/26 11:34:29;;;;;;;2.05;1.80;;;;;;;4.93;87.95;100545.06;4971563;28;20496;-72
2023/11/26 11:36:56;;;;;;;1.58;1.25;;;;;;;5.11;86.85;100541.22;4972136;28;20126;-72